sensor_id;sensor_type;location;lat;lon;timestamp;P1;durP1;ratioP1;P2;durP2;ratioP2
18647;SDS011;9453;50.294;18.644;2023-06-26T04:01:04;8.73;;;5.15;;
18647;SDS011;9453;50.294;18.644;2023-06-26T04:03:31;9.85;;;5.53;;
18647;SDS011;9453;50.294;18.644;2023-06-26T04:05:59;16.33;;;6.00;;
18647;SDS011;9453;50.294;18.644;2023-06-26T04:08:28;11.05;;;6.03;;
18647;SDS011;9453;50.294;18.644;2023-06-26T04:10:54;14.27;;;6.03;;
18647;SDS011;9453;50.294;18.644;2023-06-26T04:13:23;13.52;;;6.60;;
18647;SDS011;9453;50.294;18.644;2023-06-26T04:15:50;10.15;;;5.43;;
18647;SDS011;9453;50.294;18.644;2023-06-26T04:18:19;12.55;;;6.13;;
18647;SDS011;9453;50.294;18.644;2023-06-26T04:23:33;11.05;;;5.88;;
18647;SDS011;9453;50.294;18.644;2023-06-26T04:26:01;14.30;;;6.15;;
18647;SDS011;9453;50.294;18.644;2023-06-26T04:28:30;11.10;;;5.25;;
18647;SDS011;9453;50.294;18.644;2023-06-26T04:30:57;15.57;;;6.68;;
18647;SDS011;9453;50.294;18.644;2023-06-26T04:33:25;12.98;;;5.68;;
18647;SDS011;9453;50.294;18.644;2023-06-26T04:35:52;14.23;;;6.85;;
18647;SDS011;9453;50.294;18.644;2023-06-26T04:38:20;10.98;;;5.72;;
18647;SDS011;9453;50.294;18.644;2023-06-26T04:40:47;15.10;;;6.80;;
18647;SDS011;9453;50.294;18.644;2023-06-26T04:43:14;13.45;;;6.50;;
18647;SDS011;9453;50.294;18.644;2023-06-26T04:45:41;12.48;;;6.40;;
18647;SDS011;9453;50.294;18.644;2023-06-26T04:48:09;12.55;;;6.28;;
18647;SDS011;9453;50.294;18.644;2023-06-26T04:50:37;11.38;;;5.78;;
18647;SDS011;9453;50.294;18.644;2023-06-26T04:53:04;11.60;;;6.38;;
18647;SDS011;9453;50.294;18.644;2023-06-26T04:55:32;13.60;;;5.88;;
18647;SDS011;9453;50.294;18.644;2023-06-26T04:57:59;12.43;;;6.07;;
18647;SDS011;9453;50.294;18.644;2023-06-26T05:00:26;13.65;;;6.03;;
18647;SDS011;9453;50.294;18.644;2023-06-26T05:02:53;15.63;;;6.70;;
18647;SDS011;9453;50.294;18.644;2023-06-26T05:05:26;12.07;;;6.18;;
18647;SDS011;9453;50.294;18.644;2023-06-26T05:07:55;9.45;;;4.68;;
18647;SDS011;9453;50.294;18.644;2023-06-26T05:10:22;10.43;;;5.70;;
18647;SDS011;9453;50.294;18.644;2023-06-26T05:12:49;9.48;;;5.05;;
18647;SDS011;9453;50.294;18.644;2023-06-26T05:15:16;8.73;;;5.00;;
18647;SDS011;9453;50.294;18.644;2023-06-26T05:17:43;9.48;;;4.60;;
18647;SDS011;9453;50.294;18.644;2023-06-26T05:20:10;13.10;;;5.82;;
18647;SDS011;9453;50.294;18.644;2023-06-26T05:22:37;11.48;;;6.00;;
18647;SDS011;9453;50.294;18.644;2023-06-26T05:25:08;9.40;;;4.93;;
18647;SDS011;9453;50.294;18.644;2023-06-26T05:27:36;7.55;;;5.18;;
18647;SDS011;9453;50.294;18.644;2023-06-26T05:30:04;6.95;;;4.68;;
18647;SDS011;9453;50.294;18.644;2023-06-26T05:32:32;12.00;;;6.82;;
18647;SDS011;9453;50.294;18.644;2023-06-26T05:35:02;12.30;;;6.65;;
18647;SDS011;9453;50.294;18.644;2023-06-26T05:37:30;12.00;;;5.93;;
18647;SDS011;9453;50.294;18.644;2023-06-26T05:39:58;10.18;;;5.90;;
18647;SDS011;9453;50.294;18.644;2023-06-26T05:42:28;10.50;;;5.47;;
18647;SDS011;9453;50.294;18.644;2023-06-26T05:44:55;7.43;;;4.53;;
18647;SDS011;9453;50.294;18.644;2023-06-26T05:47:22;14.30;;;7.85;;
18647;SDS011;9453;50.294;18.644;2023-06-26T05:49:49;9.70;;;5.72;;
18647;SDS011;9453;50.294;18.644;2023-06-26T05:52:16;9.00;;;6.18;;
18647;SDS011;9453;50.294;18.644;2023-06-26T05:54:43;14.57;;;7.20;;
18647;SDS011;9453;50.294;18.644;2023-06-26T05:57:11;17.10;;;7.07;;
18647;SDS011;9453;50.294;18.644;2023-06-26T05:59:42;9.60;;;5.80;;
18647;SDS011;9453;50.294;18.644;2023-06-26T06:02:09;8.07;;;5.57;;
18647;SDS011;9453;50.294;18.644;2023-06-26T06:04:37;7.88;;;4.72;;
18647;SDS011;9453;50.294;18.644;2023-06-26T06:07:04;7.40;;;4.60;;
18647;SDS011;9453;50.294;18.644;2023-06-26T06:09:31;8.15;;;4.60;;
18647;SDS011;9453;50.294;18.644;2023-06-26T06:11:58;6.93;;;4.18;;
18647;SDS011;9453;50.294;18.644;2023-06-26T06:14:26;6.60;;;4.13;;
18647;SDS011;9453;50.294;18.644;2023-06-26T06:16:54;12.43;;;6.40;;
18647;SDS011;9453;50.294;18.644;2023-06-26T06:19:22;9.57;;;4.85;;
18647;SDS011;9453;50.294;18.644;2023-06-26T06:21:49;8.85;;;5.22;;
18647;SDS011;9453;50.294;18.644;2023-06-26T06:24:15;8.60;;;4.90;;
18647;SDS011;9453;50.294;18.644;2023-06-26T06:26:42;6.60;;;4.28;;
18647;SDS011;9453;50.294;18.644;2023-06-26T06:29:09;10.82;;;6.35;;
18647;SDS011;9453;50.294;18.644;2023-06-26T06:31:36;14.05;;;6.70;;
18647;SDS011;9453;50.294;18.644;2023-06-26T06:34:04;12.07;;;5.22;;
18647;SDS011;9453;50.294;18.644;2023-06-26T06:36:31;9.35;;;4.88;;
18647;SDS011;9453;50.294;18.644;2023-06-26T06:38:58;10.77;;;6.95;;
18647;SDS011;9453;50.294;18.644;2023-06-26T06:41:25;10.77;;;5.80;;
18647;SDS011;9453;50.294;18.644;2023-06-26T06:43:52;6.55;;;4.10;;
18647;SDS011;9453;50.294;18.644;2023-06-26T06:46:19;10.70;;;5.40;;
18647;SDS011;9453;50.294;18.644;2023-06-26T06:48:46;17.02;;;6.43;;
18647;SDS011;9453;50.294;18.644;2023-06-26T06:51:15;9.18;;;5.68;;
18647;SDS011;9453;50.294;18.644;2023-06-26T06:53:41;10.23;;;5.28;;
18647;SDS011;9453;50.294;18.644;2023-06-26T06:56:08;7.10;;;4.05;;
18647;SDS011;9453;50.294;18.644;2023-06-26T06:58:35;8.65;;;4.47;;
18647;SDS011;9453;50.294;18.644;2023-06-26T07:01:02;8.30;;;5.53;;
18647;SDS011;9453;50.294;18.644;2023-06-26T07:03:29;8.20;;;4.90;;
18647;SDS011;9453;50.294;18.644;2023-06-26T07:05:56;8.02;;;4.63;;
18647;SDS011;9453;50.294;18.644;2023-06-26T07:08:24;9.95;;;5.47;;
18647;SDS011;9453;50.294;18.644;2023-06-26T07:10:51;8.98;;;4.90;;
18647;SDS011;9453;50.294;18.644;2023-06-26T07:13:18;6.97;;;4.20;;
18647;SDS011;9453;50.294;18.644;2023-06-26T07:15:45;11.38;;;4.82;;
18647;SDS011;9453;50.294;18.644;2023-06-26T07:18:13;7.68;;;4.13;;
18647;SDS011;9453;50.294;18.644;2023-06-26T07:20:40;8.27;;;4.65;;
18647;SDS011;9453;50.294;18.644;2023-06-26T07:23:07;8.65;;;5.05;;
18647;SDS011;9453;50.294;18.644;2023-06-26T07:25:35;7.25;;;3.60;;
18647;SDS011;9453;50.294;18.644;2023-06-26T07:28:03;8.10;;;4.25;;
18647;SDS011;9453;50.294;18.644;2023-06-26T07:30:35;5.95;;;4.10;;
18647;SDS011;9453;50.294;18.644;2023-06-26T07:33:02;6.55;;;3.95;;
18647;SDS011;9453;50.294;18.644;2023-06-26T07:35:29;13.27;;;5.13;;
18647;SDS011;9453;50.294;18.644;2023-06-26T07:37:56;7.40;;;4.20;;
18647;SDS011;9453;50.294;18.644;2023-06-26T07:40:23;9.20;;;5.10;;
18647;SDS011;9453;50.294;18.644;2023-06-26T07:42:51;14.50;;;4.68;;
18647;SDS011;9453;50.294;18.644;2023-06-26T07:45:19;8.18;;;4.10;;
18647;SDS011;9453;50.294;18.644;2023-06-26T07:47:46;6.10;;;3.97;;
18647;SDS011;9453;50.294;18.644;2023-06-26T07:50:13;7.63;;;4.18;;
18647;SDS011;9453;50.294;18.644;2023-06-26T07:52:44;10.38;;;4.72;;
18647;SDS011;9453;50.294;18.644;2023-06-26T07:55:11;5.68;;;4.00;;
18647;SDS011;9453;50.294;18.644;2023-06-26T07:57:38;6.65;;;4.05;;
18647;SDS011;9453;50.294;18.644;2023-06-26T08:00:07;7.93;;;4.25;;
18647;SDS011;9453;50.294;18.644;2023-06-26T08:02:35;5.63;;;4.05;;
18647;SDS011;9453;50.294;18.644;2023-06-26T08:05:02;5.25;;;3.70;;
18647;SDS011;9453;50.294;18.644;2023-06-26T08:07:29;9.13;;;4.38;;
18647;SDS011;9453;50.294;18.644;2023-06-26T08:09:56;5.88;;;3.70;;
18647;SDS011;9453;50.294;18.644;2023-06-26T08:12:23;7.50;;;3.97;;
18647;SDS011;9453;50.294;18.644;2023-06-26T08:14:50;7.72;;;4.32;;
18647;SDS011;9453;50.294;18.644;2023-06-26T08:17:18;8.70;;;4.45;;
18647;SDS011;9453;50.294;18.644;2023-06-26T08:19:45;6.50;;;3.75;;
18647;SDS011;9453;50.294;18.644;2023-06-26T08:22:12;8.43;;;3.60;;
18647;SDS011;9453;50.294;18.644;2023-06-26T08:24:39;5.53;;;3.53;;
18647;SDS011;9453;50.294;18.644;2023-06-26T08:27:06;4.82;;;3.42;;
18647;SDS011;9453;50.294;18.644;2023-06-26T08:29:33;5.32;;;3.78;;
18647;SDS011;9453;50.294;18.644;2023-06-26T08:32:00;7.22;;;4.07;;
18647;SDS011;9453;50.294;18.644;2023-06-26T08:34:30;4.75;;;3.75;;
18647;SDS011;9453;50.294;18.644;2023-06-26T08:36:57;5.18;;;3.63;;
18647;SDS011;9453;50.294;18.644;2023-06-26T08:39:24;7.05;;;3.97;;
18647;SDS011;9453;50.294;18.644;2023-06-26T08:41:52;5.13;;;3.60;;
18647;SDS011;9453;50.294;18.644;2023-06-26T08:44:19;5.53;;;3.83;;
18647;SDS011;9453;50.294;18.644;2023-06-26T08:46:50;6.32;;;4.00;;
18647;SDS011;9453;50.294;18.644;2023-06-26T08:49:18;5.38;;;3.10;;
18647;SDS011;9453;50.294;18.644;2023-06-26T08:51:51;11.82;;;4.22;;
18647;SDS011;9453;50.294;18.644;2023-06-26T08:54:25;4.88;;;3.13;;
18647;SDS011;9453;50.294;18.644;2023-06-26T08:56:59;5.25;;;3.10;;
18647;SDS011;9453;50.294;18.644;2023-06-26T08:59:27;6.07;;;3.78;;
18647;SDS011;9453;50.294;18.644;2023-06-26T09:01:54;7.43;;;3.83;;
18647;SDS011;9453;50.294;18.644;2023-06-26T09:04:21;6.78;;;3.67;;
18647;SDS011;9453;50.294;18.644;2023-06-26T09:06:48;7.85;;;3.53;;
18647;SDS011;9453;50.294;18.644;2023-06-26T09:09:17;6.50;;;3.95;;
18647;SDS011;9453;50.294;18.644;2023-06-26T09:11:43;7.13;;;3.30;;
18647;SDS011;9453;50.294;18.644;2023-06-26T09:14:10;5.75;;;3.60;;
18647;SDS011;9453;50.294;18.644;2023-06-26T09:16:39;5.65;;;3.17;;
18647;SDS011;9453;50.294;18.644;2023-06-26T09:19:11;6.55;;;3.47;;
18647;SDS011;9453;50.294;18.644;2023-06-26T09:21:39;6.43;;;3.47;;
18647;SDS011;9453;50.294;18.644;2023-06-26T09:24:08;5.93;;;2.83;;
18647;SDS011;9453;50.294;18.644;2023-06-26T09:26:36;4.57;;;3.00;;
18647;SDS011;9453;50.294;18.644;2023-06-26T09:29:04;5.60;;;2.72;;
18647;SDS011;9453;50.294;18.644;2023-06-26T09:31:32;4.35;;;2.85;;
18647;SDS011;9453;50.294;18.644;2023-06-26T09:34:01;4.80;;;3.00;;
18647;SDS011;9453;50.294;18.644;2023-06-26T09:36:29;4.68;;;3.00;;
18647;SDS011;9453;50.294;18.644;2023-06-26T09:38:58;3.75;;;2.92;;
18647;SDS011;9453;50.294;18.644;2023-06-26T09:41:27;4.68;;;2.70;;
18647;SDS011;9453;50.294;18.644;2023-06-26T09:43:57;3.25;;;2.53;;
18647;SDS011;9453;50.294;18.644;2023-06-26T09:46:27;4.60;;;2.70;;
18647;SDS011;9453;50.294;18.644;2023-06-26T09:48:59;4.38;;;2.90;;
18647;SDS011;9453;50.294;18.644;2023-06-26T09:51:29;4.43;;;3.30;;
18647;SDS011;9453;50.294;18.644;2023-06-26T09:53:57;5.43;;;3.28;;
18647;SDS011;9453;50.294;18.644;2023-06-26T09:56:24;6.65;;;3.55;;
18647;SDS011;9453;50.294;18.644;2023-06-26T09:58:53;4.63;;;3.40;;
18647;SDS011;9453;50.294;18.644;2023-06-26T10:01:22;4.82;;;3.20;;
18647;SDS011;9453;50.294;18.644;2023-06-26T10:03:49;7.38;;;3.38;;
18647;SDS011;9453;50.294;18.644;2023-06-26T10:06:17;7.65;;;3.45;;
18647;SDS011;9453;50.294;18.644;2023-06-26T10:08:47;4.45;;;3.08;;
18647;SDS011;9453;50.294;18.644;2023-06-26T10:11:16;8.63;;;3.33;;
18647;SDS011;9453;50.294;18.644;2023-06-26T10:13:47;5.95;;;3.03;;
18647;SDS011;9453;50.294;18.644;2023-06-26T10:16:20;4.13;;;3.00;;
18647;SDS011;9453;50.294;18.644;2023-06-26T10:18:51;7.45;;;3.42;;
18647;SDS011;9453;50.294;18.644;2023-06-26T10:21:20;4.03;;;3.17;;
18647;SDS011;9453;50.294;18.644;2023-06-26T10:23:49;3.80;;;2.90;;
18647;SDS011;9453;50.294;18.644;2023-06-26T10:26:19;5.25;;;3.33;;
18647;SDS011;9453;50.294;18.644;2023-06-26T10:28:48;5.60;;;2.78;;
18647;SDS011;9453;50.294;18.644;2023-06-26T10:31:19;5.82;;;3.10;;
18647;SDS011;9453;50.294;18.644;2023-06-26T10:33:47;5.53;;;3.40;;
18647;SDS011;9453;50.294;18.644;2023-06-26T10:36:15;5.43;;;3.15;;
18647;SDS011;9453;50.294;18.644;2023-06-26T10:38:51;4.32;;;2.70;;
18647;SDS011;9453;50.294;18.644;2023-06-26T10:41:19;4.72;;;3.15;;
18647;SDS011;9453;50.294;18.644;2023-06-26T10:43:51;3.40;;;2.72;;
18647;SDS011;9453;50.294;18.644;2023-06-26T10:46:34;4.22;;;2.90;;
18647;SDS011;9453;50.294;18.644;2023-06-26T10:49:15;3.85;;;2.70;;
18647;SDS011;9453;50.294;18.644;2023-06-26T10:51:47;3.67;;;2.92;;
18647;SDS011;9453;50.294;18.644;2023-06-26T10:54:15;4.50;;;3.15;;
18647;SDS011;9453;50.294;18.644;2023-06-26T10:56:44;5.03;;;3.30;;
18647;SDS011;9453;50.294;18.644;2023-06-26T10:59:16;4.40;;;3.00;;
18647;SDS011;9453;50.294;18.644;2023-06-26T11:01:46;5.28;;;3.03;;
18647;SDS011;9453;50.294;18.644;2023-06-26T11:04:22;5.70;;;3.90;;
18647;SDS011;9453;50.294;18.644;2023-06-26T11:09:55;4.10;;;2.67;;
18647;SDS011;9453;50.294;18.644;2023-06-26T11:12:36;5.40;;;2.90;;
18647;SDS011;9453;50.294;18.644;2023-06-26T11:15:07;5.20;;;3.00;;
18647;SDS011;9453;50.294;18.644;2023-06-26T11:17:36;5.22;;;3.28;;
18647;SDS011;9453;50.294;18.644;2023-06-26T11:20:04;4.13;;;3.60;;
18647;SDS011;9453;50.294;18.644;2023-06-26T11:22:35;3.97;;;2.90;;
18647;SDS011;9453;50.294;18.644;2023-06-26T11:25:03;5.03;;;3.28;;
18647;SDS011;9453;50.294;18.644;2023-06-26T11:27:32;5.20;;;3.28;;
18647;SDS011;9453;50.294;18.644;2023-06-26T11:29:59;4.80;;;3.33;;
18647;SDS011;9453;50.294;18.644;2023-06-26T11:32:26;4.57;;;3.25;;
18647;SDS011;9453;50.294;18.644;2023-06-26T11:34:56;4.78;;;3.28;;
18647;SDS011;9453;50.294;18.644;2023-06-26T11:37:23;6.90;;;3.13;;
18647;SDS011;9453;50.294;18.644;2023-06-26T11:39:51;4.53;;;3.17;;
18647;SDS011;9453;50.294;18.644;2023-06-26T11:42:19;4.55;;;3.28;;
18647;SDS011;9453;50.294;18.644;2023-06-26T11:44:47;5.47;;;3.30;;
18647;SDS011;9453;50.294;18.644;2023-06-26T11:47:14;3.45;;;2.95;;
18647;SDS011;9453;50.294;18.644;2023-06-26T11:49:42;4.53;;;3.40;;
18647;SDS011;9453;50.294;18.644;2023-06-26T11:52:14;3.47;;;3.15;;
18647;SDS011;9453;50.294;18.644;2023-06-26T11:54:42;5.63;;;3.20;;
18647;SDS011;9453;50.294;18.644;2023-06-26T11:57:13;6.15;;;3.13;;
18647;SDS011;9453;50.294;18.644;2023-06-26T11:59:40;6.65;;;2.92;;
18647;SDS011;9453;50.294;18.644;2023-06-26T12:02:08;4.00;;;3.13;;
18647;SDS011;9453;50.294;18.644;2023-06-26T12:04:37;5.07;;;2.90;;
18647;SDS011;9453;50.294;18.644;2023-06-26T12:07:07;5.82;;;3.50;;
18647;SDS011;9453;50.294;18.644;2023-06-26T12:09:39;3.53;;;3.00;;
18647;SDS011;9453;50.294;18.644;2023-06-26T12:12:09;3.55;;;3.00;;
18647;SDS011;9453;50.294;18.644;2023-06-26T12:14:37;4.63;;;3.25;;
18647;SDS011;9453;50.294;18.644;2023-06-26T12:17:08;4.45;;;2.90;;
18647;SDS011;9453;50.294;18.644;2023-06-26T12:19:37;3.80;;;3.03;;
18647;SDS011;9453;50.294;18.644;2023-06-26T12:22:08;3.67;;;2.88;;
18647;SDS011;9453;50.294;18.644;2023-06-26T12:24:36;5.43;;;3.35;;
18647;SDS011;9453;50.294;18.644;2023-06-26T12:27:08;4.45;;;3.10;;
18647;SDS011;9453;50.294;18.644;2023-06-26T12:29:36;4.90;;;3.30;;
18647;SDS011;9453;50.294;18.644;2023-06-26T12:32:08;4.90;;;3.05;;
18647;SDS011;9453;50.294;18.644;2023-06-26T12:34:36;5.13;;;3.25;;
18647;SDS011;9453;50.294;18.644;2023-06-26T12:37:04;4.55;;;3.25;;
18647;SDS011;9453;50.294;18.644;2023-06-26T12:39:46;5.78;;;2.83;;
18647;SDS011;9453;50.294;18.644;2023-06-26T12:42:14;3.67;;;2.92;;
18647;SDS011;9453;50.294;18.644;2023-06-26T12:44:42;4.90;;;3.38;;
18647;SDS011;9453;50.294;18.644;2023-06-26T12:47:09;5.88;;;2.90;;
18647;SDS011;9453;50.294;18.644;2023-06-26T12:49:39;4.45;;;3.28;;
18647;SDS011;9453;50.294;18.644;2023-06-26T12:52:07;5.32;;;3.10;;
18647;SDS011;9453;50.294;18.644;2023-06-26T12:54:36;5.60;;;3.65;;
18647;SDS011;9453;50.294;18.644;2023-06-26T12:57:06;4.63;;;2.92;;
18647;SDS011;9453;50.294;18.644;2023-06-26T12:59:34;5.18;;;2.90;;
18647;SDS011;9453;50.294;18.644;2023-06-26T13:02:03;5.47;;;3.15;;
18647;SDS011;9453;50.294;18.644;2023-06-26T13:04:30;3.65;;;3.10;;
18647;SDS011;9453;50.294;18.644;2023-06-26T13:06:57;4.03;;;3.00;;
18647;SDS011;9453;50.294;18.644;2023-06-26T13:09:25;5.20;;;2.85;;
18647;SDS011;9453;50.294;18.644;2023-06-26T13:11:53;4.10;;;3.03;;
18647;SDS011;9453;50.294;18.644;2023-06-26T13:14:21;4.53;;;3.17;;
18647;SDS011;9453;50.294;18.644;2023-06-26T13:16:48;4.47;;;3.10;;
18647;SDS011;9453;50.294;18.644;2023-06-26T13:19:15;6.68;;;2.80;;
18647;SDS011;9453;50.294;18.644;2023-06-26T13:21:42;7.07;;;3.58;;
18647;SDS011;9453;50.294;18.644;2023-06-26T13:24:09;3.70;;;2.65;;
18647;SDS011;9453;50.294;18.644;2023-06-26T13:26:36;5.72;;;3.03;;
18647;SDS011;9453;50.294;18.644;2023-06-26T13:29:03;4.75;;;3.10;;
18647;SDS011;9453;50.294;18.644;2023-06-26T13:31:32;5.47;;;3.47;;
18647;SDS011;9453;50.294;18.644;2023-06-26T13:33:59;4.65;;;3.13;;
18647;SDS011;9453;50.294;18.644;2023-06-26T13:36:28;5.38;;;3.40;;
18647;SDS011;9453;50.294;18.644;2023-06-26T13:38:55;7.32;;;3.40;;
18647;SDS011;9453;50.294;18.644;2023-06-26T13:41:22;6.32;;;3.58;;
18647;SDS011;9453;50.294;18.644;2023-06-26T13:43:49;5.25;;;2.97;;
18647;SDS011;9453;50.294;18.644;2023-06-26T13:46:16;4.35;;;3.30;;
18647;SDS011;9453;50.294;18.644;2023-06-26T13:48:44;4.60;;;3.35;;
18647;SDS011;9453;50.294;18.644;2023-06-26T13:51:12;8.77;;;3.60;;
18647;SDS011;9453;50.294;18.644;2023-06-26T13:53:39;5.93;;;3.47;;
18647;SDS011;9453;50.294;18.644;2023-06-26T13:56:05;4.60;;;3.47;;
18647;SDS011;9453;50.294;18.644;2023-06-26T13:58:34;4.72;;;3.35;;
18647;SDS011;9453;50.294;18.644;2023-06-26T14:01:03;4.38;;;3.28;;
18647;SDS011;9453;50.294;18.644;2023-06-26T14:03:30;3.50;;;3.00;;
18647;SDS011;9453;50.294;18.644;2023-06-26T14:05:59;5.25;;;3.17;;
18647;SDS011;9453;50.294;18.644;2023-06-26T14:08:26;4.95;;;3.00;;
18647;SDS011;9453;50.294;18.644;2023-06-26T14:10:53;5.57;;;3.30;;
18647;SDS011;9453;50.294;18.644;2023-06-26T14:13:19;4.72;;;3.30;;
18647;SDS011;9453;50.294;18.644;2023-06-26T14:15:46;4.95;;;3.42;;
18647;SDS011;9453;50.294;18.644;2023-06-26T14:18:13;7.38;;;2.92;;
18647;SDS011;9453;50.294;18.644;2023-06-26T14:20:42;5.68;;;3.50;;
18647;SDS011;9453;50.294;18.644;2023-06-26T14:23:11;5.10;;;3.63;;
18647;SDS011;9453;50.294;18.644;2023-06-26T14:25:38;4.03;;;3.17;;
18647;SDS011;9453;50.294;18.644;2023-06-26T14:28:04;6.25;;;3.28;;
18647;SDS011;9453;50.294;18.644;2023-06-26T14:30:32;5.47;;;3.58;;
18647;SDS011;9453;50.294;18.644;2023-06-26T14:32:59;5.45;;;3.35;;
18647;SDS011;9453;50.294;18.644;2023-06-26T14:35:26;4.55;;;3.13;;
18647;SDS011;9453;50.294;18.644;2023-06-26T14:37:53;3.92;;;3.20;;
18647;SDS011;9453;50.294;18.644;2023-06-26T14:40:21;4.03;;;3.13;;
18647;SDS011;9453;50.294;18.644;2023-06-26T14:42:48;6.45;;;3.30;;
18647;SDS011;9453;50.294;18.644;2023-06-26T14:45:15;4.15;;;3.10;;
18647;SDS011;9453;50.294;18.644;2023-06-26T14:47:42;4.10;;;3.22;;
18647;SDS011;9453;50.294;18.644;2023-06-26T14:50:09;5.22;;;3.13;;
18647;SDS011;9453;50.294;18.644;2023-06-26T14:52:36;7.07;;;3.58;;
18647;SDS011;9453;50.294;18.644;2023-06-26T14:55:03;6.20;;;3.22;;
18647;SDS011;9453;50.294;18.644;2023-06-26T14:57:32;6.07;;;3.72;;
18647;SDS011;9453;50.294;18.644;2023-06-26T14:59:59;5.00;;;3.60;;
18647;SDS011;9453;50.294;18.644;2023-06-26T15:02:26;4.32;;;3.25;;
18647;SDS011;9453;50.294;18.644;2023-06-26T15:04:53;4.80;;;3.33;;
18647;SDS011;9453;50.294;18.644;2023-06-26T15:07:20;4.60;;;3.25;;
18647;SDS011;9453;50.294;18.644;2023-06-26T15:09:47;4.35;;;3.38;;
18647;SDS011;9453;50.294;18.644;2023-06-26T15:12:14;4.40;;;3.15;;
18647;SDS011;9453;50.294;18.644;2023-06-26T15:14:42;4.80;;;3.05;;
18647;SDS011;9453;50.294;18.644;2023-06-26T15:17:09;3.45;;;3.05;;
18647;SDS011;9453;50.294;18.644;2023-06-26T15:19:37;7.20;;;3.63;;
18647;SDS011;9453;50.294;18.644;2023-06-26T15:22:04;6.13;;;3.63;;
18647;SDS011;9453;50.294;18.644;2023-06-26T15:24:37;4.78;;;3.28;;
18647;SDS011;9453;50.294;18.644;2023-06-26T15:27:05;4.63;;;3.50;;
18647;SDS011;9453;50.294;18.644;2023-06-26T15:29:32;4.10;;;3.13;;
18647;SDS011;9453;50.294;18.644;2023-06-26T15:32:00;8.20;;;3.33;;
18647;SDS011;9453;50.294;18.644;2023-06-26T15:34:27;4.75;;;3.42;;
18647;SDS011;9453;50.294;18.644;2023-06-26T15:36:54;3.60;;;3.00;;
18647;SDS011;9453;50.294;18.644;2023-06-26T15:39:21;3.00;;;2.70;;
18647;SDS011;9453;50.294;18.644;2023-06-26T15:41:47;3.53;;;2.88;;
18647;SDS011;9453;50.294;18.644;2023-06-26T15:44:14;4.15;;;2.88;;
18647;SDS011;9453;50.294;18.644;2023-06-26T15:46:41;3.55;;;3.13;;
18647;SDS011;9453;50.294;18.644;2023-06-26T15:49:10;3.67;;;3.00;;
18647;SDS011;9453;50.294;18.644;2023-06-26T15:51:37;3.17;;;2.78;;
18647;SDS011;9453;50.294;18.644;2023-06-26T15:54:04;5.63;;;3.55;;
18647;SDS011;9453;50.294;18.644;2023-06-26T15:56:31;7.18;;;3.65;;
18647;SDS011;9453;50.294;18.644;2023-06-26T15:58:58;4.53;;;3.35;;
18647;SDS011;9453;50.294;18.644;2023-06-26T16:01:25;5.03;;;3.35;;
18647;SDS011;9453;50.294;18.644;2023-06-26T16:03:52;3.10;;;2.80;;
18647;SDS011;9453;50.294;18.644;2023-06-26T16:06:20;3.35;;;2.78;;
18647;SDS011;9453;50.294;18.644;2023-06-26T16:08:47;3.65;;;2.78;;
18647;SDS011;9453;50.294;18.644;2023-06-26T16:11:17;5.45;;;2.95;;
18647;SDS011;9453;50.294;18.644;2023-06-26T16:13:44;4.20;;;3.45;;
18647;SDS011;9453;50.294;18.644;2023-06-26T16:16:11;6.00;;;2.97;;
18647;SDS011;9453;50.294;18.644;2023-06-26T16:18:39;3.83;;;2.70;;
18647;SDS011;9453;50.294;18.644;2023-06-26T16:21:06;4.05;;;2.92;;
18647;SDS011;9453;50.294;18.644;2023-06-26T16:23:35;3.35;;;2.88;;
18647;SDS011;9453;50.294;18.644;2023-06-26T16:26:02;3.78;;;2.63;;
18647;SDS011;9453;50.294;18.644;2023-06-26T16:28:29;3.65;;;2.78;;
18647;SDS011;9453;50.294;18.644;2023-06-26T16:30:55;6.68;;;2.80;;
18647;SDS011;9453;50.294;18.644;2023-06-26T16:33:22;3.83;;;2.85;;
18647;SDS011;9453;50.294;18.644;2023-06-26T16:35:49;5.28;;;2.42;;
18647;SDS011;9453;50.294;18.644;2023-06-26T16:38:16;5.78;;;3.05;;
18647;SDS011;9453;50.294;18.644;2023-06-26T16:40:44;3.67;;;2.55;;
18647;SDS011;9453;50.294;18.644;2023-06-26T16:43:11;3.60;;;2.58;;
18647;SDS011;9453;50.294;18.644;2023-06-26T16:45:39;2.78;;;2.42;;
18647;SDS011;9453;50.294;18.644;2023-06-26T16:48:06;2.92;;;2.30;;
18647;SDS011;9453;50.294;18.644;2023-06-26T16:50:33;4.22;;;3.00;;
18647;SDS011;9453;50.294;18.644;2023-06-26T16:53:00;3.90;;;2.60;;
18647;SDS011;9453;50.294;18.644;2023-06-26T16:55:27;5.32;;;2.90;;
18647;SDS011;9453;50.294;18.644;2023-06-26T16:57:55;4.50;;;2.70;;
18647;SDS011;9453;50.294;18.644;2023-06-26T17:00:22;4.90;;;2.75;;
18647;SDS011;9453;50.294;18.644;2023-06-26T17:02:49;3.13;;;2.40;;
18647;SDS011;9453;50.294;18.644;2023-06-26T17:05:16;3.70;;;2.80;;
18647;SDS011;9453;50.294;18.644;2023-06-26T17:07:43;2.80;;;2.40;;
18647;SDS011;9453;50.294;18.644;2023-06-26T17:10:10;5.20;;;2.63;;
18647;SDS011;9453;50.294;18.644;2023-06-26T17:12:37;3.10;;;2.47;;
18647;SDS011;9453;50.294;18.644;2023-06-26T17:15:06;4.28;;;2.75;;
18647;SDS011;9453;50.294;18.644;2023-06-26T17:17:34;4.25;;;2.72;;
18647;SDS011;9453;50.294;18.644;2023-06-26T17:20:01;3.47;;;2.47;;
18647;SDS011;9453;50.294;18.644;2023-06-26T17:22:32;3.45;;;2.75;;
18647;SDS011;9453;50.294;18.644;2023-06-26T17:24:59;3.65;;;2.75;;
18647;SDS011;9453;50.294;18.644;2023-06-26T17:27:29;4.82;;;2.60;;
18647;SDS011;9453;50.294;18.644;2023-06-26T17:29:56;3.95;;;2.80;;
18647;SDS011;9453;50.294;18.644;2023-06-26T17:32:25;4.80;;;2.47;;
18647;SDS011;9453;50.294;18.644;2023-06-26T17:34:52;3.20;;;2.47;;
18647;SDS011;9453;50.294;18.644;2023-06-26T17:37:19;3.53;;;2.63;;
18647;SDS011;9453;50.294;18.644;2023-06-26T17:39:48;3.67;;;2.45;;
18647;SDS011;9453;50.294;18.644;2023-06-26T17:42:15;3.55;;;2.63;;
18647;SDS011;9453;50.294;18.644;2023-06-26T17:44:42;3.92;;;2.55;;
18647;SDS011;9453;50.294;18.644;2023-06-26T17:47:09;3.65;;;2.80;;
18647;SDS011;9453;50.294;18.644;2023-06-26T17:49:38;3.95;;;2.33;;
18647;SDS011;9453;50.294;18.644;2023-06-26T17:52:05;3.70;;;2.88;;
18647;SDS011;9453;50.294;18.644;2023-06-26T17:54:33;3.17;;;2.50;;
18647;SDS011;9453;50.294;18.644;2023-06-26T17:57:00;4.85;;;2.38;;
18647;SDS011;9453;50.294;18.644;2023-06-26T17:59:27;3.60;;;2.50;;
18647;SDS011;9453;50.294;18.644;2023-06-26T18:01:55;4.25;;;3.03;;
18647;SDS011;9453;50.294;18.644;2023-06-26T18:04:23;4.18;;;2.58;;
18647;SDS011;9453;50.294;18.644;2023-06-26T18:06:52;3.13;;;2.63;;
18647;SDS011;9453;50.294;18.644;2023-06-26T18:09:19;3.30;;;2.50;;
18647;SDS011;9453;50.294;18.644;2023-06-26T18:11:46;3.78;;;2.90;;
18647;SDS011;9453;50.294;18.644;2023-06-26T18:14:13;3.78;;;2.85;;
18647;SDS011;9453;50.294;18.644;2023-06-26T18:16:40;3.08;;;2.47;;
18647;SDS011;9453;50.294;18.644;2023-06-26T18:19:07;5.30;;;2.60;;
18647;SDS011;9453;50.294;18.644;2023-06-26T18:21:34;4.10;;;2.50;;
18647;SDS011;9453;50.294;18.644;2023-06-26T18:24:02;4.78;;;2.38;;
18647;SDS011;9453;50.294;18.644;2023-06-26T18:26:29;4.43;;;2.92;;
18647;SDS011;9453;50.294;18.644;2023-06-26T18:28:57;3.28;;;2.20;;
18647;SDS011;9453;50.294;18.644;2023-06-26T18:31:24;4.85;;;2.70;;
18647;SDS011;9453;50.294;18.644;2023-06-26T18:33:51;3.30;;;2.60;;
18647;SDS011;9453;50.294;18.644;2023-06-26T18:36:18;3.25;;;2.40;;
18647;SDS011;9453;50.294;18.644;2023-06-26T18:38:45;3.75;;;2.30;;
18647;SDS011;9453;50.294;18.644;2023-06-26T18:41:14;3.60;;;2.67;;
18647;SDS011;9453;50.294;18.644;2023-06-26T18:43:41;5.00;;;2.75;;
18647;SDS011;9453;50.294;18.644;2023-06-26T18:46:10;3.72;;;2.45;;
18647;SDS011;9453;50.294;18.644;2023-06-26T18:48:37;2.70;;;2.05;;
18647;SDS011;9453;50.294;18.644;2023-06-26T18:51:04;3.08;;;2.72;;
18647;SDS011;9453;50.294;18.644;2023-06-26T18:53:31;3.92;;;2.70;;
18647;SDS011;9453;50.294;18.644;2023-06-26T18:55:58;4.28;;;2.70;;